Time;durP1;ratioP1;P1;durP2;ratioP2;P2;SDS_P1;SDS_P2;PMS_P1;PMS_P2;Temp;Humidity;BMP_temperature;BMP_pressure;BME280_temperature;BME280_humidity;BME280_pressure;Samples;Min_cycle;Max_cycle;Signal;HPM_P1;HPM_P2
2023/04/13 00:00:35;;;;;;;;;;;;;;;13.35;45.81;96960.16;4380399;32;19985;-78
2023/04/13 00:03:02;;;;;;;;;;;;;;;13.18;46.28;96956.94;4380620;32;19975;-78
2023/04/13 00:05:29;;;;;;;;;;;;;;;13.07;47.00;96956.03;4380710;32;20242;-78
2023/04/13 00:08:01;;;;;;;;;;;;;;;13.19;46.86;96950.88;4380271;32;20489;-78
2023/04/13 00:10:30;;;;;;;;;;;;;;;13.10;47.07;96955.84;4380682;32;20070;-78
2023/04/13 00:13:00;;;;;;;;;;;;;;;13.16;47.25;96960.56;4380660;32;19982;-78
2023/04/13 00:15:27;;;;;;;;;;;;;;;12.97;47.36;96956.72;4379277;32;19994;-78
2023/04/13 00:17:53;;;;;;;;;;;;;;;12.71;48.29;96955.06;4379389;32;19970;-78
2023/04/13 00:20:20;;;;;;;;;;;;;;;12.38;49.24;96953.84;4380423;32;20065;-78
2023/04/13 00:22:47;;;;;;;;;;;;;;;12.08;50.60;96953.31;4380287;32;19969;-78
2023/04/13 00:25:14;;;;;;;;;;;;;;;12.06;50.85;96948.22;4380619;32;19996;-78
2023/04/13 00:27:42;;;;;;;;;;;;;;;12.08;50.95;96948.97;4380480;32;20020;-78
2023/04/13 00:30:10;;;;;;;;;;;;;;;12.49;49.99;96945.37;4378939;32;19978;-78
2023/04/13 00:32:37;;;;;;;;;;;;;;;11.58;52.19;96953.03;4380612;32;19982;-78
2023/04/13 00:35:04;;;;;;;;;;;;;;;11.98;51.46;96941.91;4380574;32;19990;-78
2023/04/13 00:37:31;;;;;;;;;;;;;;;11.93;51.71;96949.97;4380247;32;19977;-78
2023/04/13 00:39:58;;;;;;;;;;;;;;;11.66;52.16;96938.81;4380263;32;20332;-78
2023/04/13 00:42:25;;;;;;;;;;;;;;;11.42;52.65;96942.03;4380233;32;20033;-78
2023/04/13 00:44:52;;;;;;;;;;;;;;;12.05;50.93;96936.25;4380518;32;19978;-78
2023/04/13 00:47:21;;;;;;;;;;;;;;;11.68;51.99;96939.53;4380541;32;19978;-78
2023/04/13 00:49:48;;;;;;;;;;;;;;;12.15;50.68;96939.03;4378697;32;20034;-78
2023/04/13 00:52:14;;;;;;;;;;;;;;;12.04;50.52;96931.19;4374663;32;19997;-78
2023/04/13 00:54:41;;;;;;;;;;;;;;;12.23;50.12;96926.44;4365546;32;19979;-78
2023/04/13 00:57:08;;;;;;;;;;;;;;;11.78;51.03;96925.91;4376287;32;19993;-78
2023/04/13 00:59:35;;;;;;;;;;;;;;;11.66;51.49;96929.28;4365182;32;19966;-78
2023/04/13 01:02:04;;;;;;;;;;;;;;;11.79;50.91;96919.84;4365473;32;19978;-78
2023/04/13 01:04:31;;;;;;;;;;;;;;;11.60;51.39;96927.13;4365132;32;20013;-78
2023/04/13 01:07:02;;;;;;;;;;;;;;;11.27;52.54;96922.34;4365382;32;19975;-78
2023/04/13 01:09:30;;;;;;;;;;;;;;;11.25;52.63;96924.19;4365345;32;19974;-78
2023/04/13 01:12:16;;;;;;;;;;;;;;;11.55;51.67;96922.25;4365144;32;20041;-78
2023/04/13 01:14:55;;;;;;;;;;;;;;;11.56;51.23;96915.31;4365362;32;19997;-78
2023/04/13 01:17:27;;;;;;;;;;;;;;;11.24;52.20;96918.19;4375930;32;20029;-78
2023/04/13 01:20:00;;;;;;;;;;;;;;;11.22;52.24;96912.31;4376125;32;19967;-78
2023/04/13 01:22:28;;;;;;;;;;;;;;;10.93;53.53;96923.63;4365287;32;19983;-78
2023/04/13 01:25:02;;;;;;;;;;;;;;;10.67;54.88;96915.75;4376286;32;20045;-78
2023/04/13 01:27:29;;;;;;;;;;;;;;;10.47;56.55;96910.97;4365259;32;20030;-78
2023/04/13 01:29:55;;;;;;;;;;;;;;;10.66;55.93;96916.66;4365142;32;19975;-78
2023/04/13 01:32:22;;;;;;;;;;;;;;;10.68;56.06;96919.16;4376054;32;20318;-78
2023/04/13 01:34:49;;;;;;;;;;;;;;;10.75;55.74;96912.69;4376422;32;19990;-78
2023/04/13 01:37:16;;;;;;;;;;;;;;;10.58;56.45;96911.12;4376493;32;19985;-78
2023/04/13 01:39:42;;;;;;;;;;;;;;;11.05;55.30;96907.37;4364460;32;19967;-78
2023/04/13 01:42:09;;;;;;;;;;;;;;;10.79;55.39;96903.00;4365149;32;20033;-78
2023/04/13 01:44:36;;;;;;;;;;;;;;;10.76;55.85;96904.03;4365238;32;19979;-78
2023/04/13 01:47:14;;;;;;;;;;;;;;;10.47;56.43;96903.22;4364620;32;19970;-78
2023/04/13 01:49:43;;;;;;;;;;;;;;;10.24;57.25;96899.44;4364934;32;20306;-78
2023/04/13 01:52:10;;;;;;;;;;;;;;;10.06;58.41;96896.16;4375838;32;19982;-78
2023/04/13 01:54:37;;;;;;;;;;;;;;;10.50;57.26;96905.63;4364659;32;19979;-78
2023/04/13 01:57:04;;;;;;;;;;;;;;;10.05;59.19;96894.50;4376158;32;20670;-78
2023/04/13 01:59:31;;;;;;;;;;;;;;;8.79;65.64;96896.53;4364345;32;19966;-78
2023/04/13 02:01:58;;;;;;;;;;;;;;;9.24;67.01;96901.72;4364925;32;19979;-78
2023/04/13 02:04:25;;;;;;;;;;;;;;;9.10;65.49;96901.66;4364815;32;20041;-78
2023/04/13 02:06:52;;;;;;;;;;;;;;;9.37;64.22;96904.47;4364499;32;19971;-78
2023/04/13 02:09:18;;;;;;;;;;;;;;;9.99;62.01;96909.50;4364774;32;19971;-78
2023/04/13 02:11:46;;;;;;;;;;;;;;;10.19;61.41;96906.59;4366535;32;20369;-78
2023/04/13 02:14:13;;;;;;;;;;;;;;;10.05;62.75;96904.81;4366280;32;19983;-78
2023/04/13 02:16:40;;;;;;;;;;;;;;;10.05;64.03;96904.00;4366503;32;19978;-78
2023/04/13 02:19:07;;;;;;;;;;;;;;;10.58;61.15;96898.25;4366220;32;20068;-78
2023/04/13 02:21:34;;;;;;;;;;;;;;;10.32;62.95;96896.44;4366191;32;19999;-78
2023/04/13 02:24:01;;;;;;;;;;;;;;;10.36;62.23;96897.88;4366483;32;19983;-78
2023/04/13 02:26:28;;;;;;;;;;;;;;;10.92;59.85;96896.16;4366486;32;20314;-78
2023/04/13 02:28:55;;;;;;;;;;;;;;;10.66;60.22;96893.44;4366010;32;20444;-78
2023/04/13 02:31:22;;;;;;;;;;;;;;;10.14;62.30;96883.66;4366332;32;19970;-78
2023/04/13 02:33:50;;;;;;;;;;;;;;;10.03;63.14;96880.91;4366423;32;19986;-78
2023/04/13 02:36:17;;;;;;;;;;;;;;;9.23;64.91;96886.38;4366021;32;19971;-78
2023/04/13 02:38:44;;;;;;;;;;;;;;;9.98;64.33;96876.91;4366363;32;19985;-78
2023/04/13 02:41:11;;;;;;;;;;;;;;;9.52;68.39;96884.75;4366208;32;19975;-78
2023/04/13 02:43:38;;;;;;;;;;;;;;;10.22;64.55;96888.41;4366158;32;19979;-78
2023/04/13 02:46:05;;;;;;;;;;;;;;;10.64;62.52;96891.91;4366364;32;20301;-78
2023/04/13 02:48:31;;;;;;;;;;;;;;;10.65;63.30;96896.12;4366186;32;19958;-78
2023/04/13 02:50:58;;;;;;;;;;;;;;;10.65;62.39;96894.38;4366595;32;19987;-78
2023/04/13 02:53:26;;;;;;;;;;;;;;;10.55;62.15;96893.28;4380258;32;19994;-78
2023/04/13 02:55:53;;;;;;;;;;;;;;;10.08;63.46;96888.34;4380917;32;20036;-78
2023/04/13 02:58:22;;;;;;;;;;;;;;;10.71;60.46;96885.41;4381167;32;19970;-78
2023/04/13 03:00:48;;;;;;;;;;;;;;;10.58;60.95;96885.34;4380905;32;20056;-78
2023/04/13 03:03:15;;;;;;;;;;;;;;;10.46;62.52;96883.53;4380816;32;19981;-79
2023/04/13 03:05:42;;;;;;;;;;;;;;;10.78;61.50;96885.88;4381157;32;19974;-78
2023/04/13 03:08:09;;;;;;;;;;;;;;;10.79;62.46;96877.22;4381001;32;19970;-78
2023/04/13 03:10:39;;;;;;;;;;;;;;;10.62;62.76;96881.66;4380659;32;20352;-78
2023/04/13 03:13:06;;;;;;;;;;;;;;;10.51;61.94;96871.16;4381148;32;19982;-78
2023/04/13 03:15:33;;;;;;;;;;;;;;;10.20;63.12;96876.47;4381094;32;19970;-78
2023/04/13 03:17:59;;;;;;;;;;;;;;;10.35;62.93;96875.59;4380659;32;20298;-78
2023/04/13 03:20:27;;;;;;;;;;;;;;;10.39;62.76;96877.91;4380580;32;20341;-78
2023/04/13 03:22:55;;;;;;;;;;;;;;;10.34;64.01;96871.38;4380476;32;19978;-78
2023/04/13 03:25:22;;;;;;;;;;;;;;;10.63;62.77;96864.41;4380637;32;19974;-78
2023/04/13 03:27:49;;;;;;;;;;;;;;;10.43;64.21;96865.66;4381010;32;19985;-78
2023/04/13 03:30:17;;;;;;;;;;;;;;;10.64;63.55;96869.50;4380858;32;20372;-78
2023/04/13 03:32:44;;;;;;;;;;;;;;;10.02;66.31;96866.34;4380707;32;19978;-78
2023/04/13 03:35:11;;;;;;;;;;;;;;;11.01;62.76;96869.78;4380942;32;20036;-78
2023/04/13 03:37:42;;;;;;;;;;;;;;;10.81;63.44;96868.44;4380902;32;19970;-78
2023/04/13 03:40:09;;;;;;;;;;;;;;;10.76;64.12;96864.50;4380739;32;19982;-78
2023/04/13 03:42:36;;;;;;;;;;;;;;;11.12;63.31;96867.34;4380919;32;19978;-78
2023/04/13 03:45:03;;;;;;;;;;;;;;;11.40;61.65;96865.59;4380485;32;19990;-78
2023/04/13 03:47:30;;;;;;;;;;;;;;;10.65;65.08;96863.44;4380945;32;19985;-78
2023/04/13 03:49:57;;;;;;;;;;;;;;;10.41;66.75;96859.75;4379386;32;20041;-78
2023/04/13 03:52:24;;;;;;;;;;;;;;;10.55;66.50;96859.75;4380269;32;19986;-78
2023/04/13 03:54:51;;;;;;;;;;;;;;;10.61;66.21;96864.50;4380828;32;20329;-78
2023/04/13 03:57:17;;;;;;;;;;;;;;;10.15;69.03;96858.72;4380738;32;20261;-78
2023/04/13 03:59:44;;;;;;;;;;;;;;;10.13;68.52;96856.25;4378993;32;20041;-78
2023/04/13 04:02:11;;;;;;;;;;;;;;;9.86;69.87;96870.75;4379728;32;19990;-78
2023/04/13 04:04:37;;;;;;;;;;;;;;;9.72;70.13;96871.56;4380669;32;20108;-78
2023/04/13 04:07:04;;;;;;;;;;;;;;;10.03;69.70;96868.00;4380454;32;20017;-78
2023/04/13 04:09:31;;;;;;;;;;;;;;;10.06;69.25;96870.41;4380570;32;19978;-78
2023/04/13 04:11:58;;;;;;;;;;;;;;;9.89;70.27;96873.16;4380576;32;19993;-78
2023/04/13 04:14:25;;;;;;;;;;;;;;;9.53;73.85;96876.09;4380351;32;20340;-78
2023/04/13 04:16:51;;;;;;;;;;;;;;;9.81;72.12;96881.31;4380633;32;20017;-78
2023/04/13 04:19:18;;;;;;;;;;;;;;;9.98;71.93;96882.91;4380537;32;19978;-78
2023/04/13 04:21:45;;;;;;;;;;;;;;;10.03;71.26;96883.47;4380198;32;19996;-78
2023/04/13 04:24:22;;;;;;;;;;;;;;;10.62;68.62;96891.97;4380653;32;20358;-78
2023/04/13 04:26:49;;;;;;;;;;;;;;;10.92;66.18;96894.41;4380539;32;19985;-77
2023/04/13 04:29:16;;;;;;;;;;;;;;;10.68;67.03;96888.19;4380363;32;19974;-78
2023/04/13 04:31:43;;;;;;;;;;;;;;;10.08;70.82;96886.59;4380614;32;19990;-78
2023/04/13 04:34:10;;;;;;;;;;;;;;;10.07;72.02;96886.69;4379826;32;19990;-78
2023/04/13 04:36:40;;;;;;;;;;;;;;;9.88;74.57;96892.09;4380596;32;20245;-78
2023/04/13 04:39:08;;;;;;;;;;;;;;;9.86;75.61;96886.19;4380587;32;20344;-78
2023/04/13 04:41:36;;;;;;;;;;;;;;;9.97;74.64;96894.13;4378936;32;19996;-78
2023/04/13 04:44:06;;;;;;;;;;;;;;;9.96;72.79;96883.91;4380459;32;19988;-78
2023/04/13 04:46:37;;;;;;;;;;;;;;;10.04;72.24;96892.03;4380491;32;19989;-78
2023/04/13 04:49:04;;;;;;;;;;;;;;;10.03;71.79;96887.81;4380137;32;20021;-78
2023/04/13 04:51:32;;;;;;;;;;;;;;;10.23;71.29;96891.81;4380199;32;19982;-78
2023/04/13 04:54:01;;;;;;;;;;;;;;;10.71;69.03;96906.87;4380436;32;19982;-78
2023/04/13 04:56:27;;;;;;;;;;;;;;;10.84;68.11;96903.53;4380013;32;19966;-78
2023/04/13 04:58:54;;;;;;;;;;;;;;;10.90;67.87;96903.19;4380220;32;20001;-78
2023/04/13 05:01:25;;;;;;;;;;;;;;;11.21;67.90;96912.41;4380175;32;19974;-78
2023/04/13 05:03:52;;;;;;;;;;;;;;;11.31;68.83;96903.16;4380140;32;19982;-78
2023/04/13 05:06:19;;;;;;;;;;;;;;;11.35;69.24;96914.09;4380307;32;19962;-78
2023/04/13 05:08:45;;;;;;;;;;;;;;;11.21;70.06;96905.50;4380328;32;19974;-78
2023/04/13 05:11:12;;;;;;;;;;;;;;;11.61;70.12;96913.28;4379962;32;19970;-78
2023/04/13 05:13:39;;;;;;;;;;;;;;;11.44;70.10;96910.94;4380396;32;20005;-78
2023/04/13 05:16:06;;;;;;;;;;;;;;;11.19;72.21;96914.28;4379925;32;20017;-78
2023/04/13 05:18:41;;;;;;;;;;;;;;;11.40;71.68;96917.25;4380298;32;20033;-77
2023/04/13 05:21:08;;;;;;;;;;;;;;;11.11;73.72;96917.31;4380147;32;20289;-78
2023/04/13 05:23:35;;;;;;;;;;;;;;;9.78;81.83;96909.00;4379842;32;19979;-77
2023/04/13 05:26:02;;;;;;;;;;;;;;;9.81;83.93;96911.41;4380190;32;19962;-78
2023/04/13 05:28:28;;;;;;;;;;;;;;;10.13;81.23;96915.53;4380189;32;19970;-78
2023/04/13 05:31:02;;;;;;;;;;;;;;;9.29;84.14;96911.78;4379749;32;19982;-77
2023/04/13 05:33:29;;;;;;;;;;;;;;;9.22;84.45;96929.28;4380142;32;19989;-77
2023/04/13 05:35:56;;;;;;;;;;;;;;;9.45;84.66;96935.75;4380116;32;20352;-78
2023/04/13 05:38:23;;;;;;;;;;;;;;;10.12;82.28;96938.81;4379747;32;19971;-78
2023/04/13 05:40:49;;;;;;;;;;;;;;;9.17;87.01;96943.34;4378804;32;20008;-77
2023/04/13 05:43:16;;;;;;;;;;;;;;;9.17;85.93;96939.03;4379997;32;19996;-77
2023/04/13 05:45:43;;;;;;;;;;;;;;;9.16;86.58;96936.53;4378593;32;19985;-77
2023/04/13 05:48:10;;;;;;;;;;;;;;;8.88;88.22;96937.19;4379875;32;20322;-77
2023/04/13 05:50:37;;;;;;;;;;;;;;;9.05;87.52;96936.31;4380007;32;19990;-77
2023/04/13 05:53:07;;;;;;;;;;;;;;;9.02;88.07;96939.03;4379290;32;19974;-78
2023/04/13 05:55:34;;;;;;;;;;;;;;;9.08;85.38;96939.53;4379817;32;19978;-78
2023/04/13 05:58:02;;;;;;;;;;;;;;;9.26;85.59;96940.28;4379690;32;20040;-78
2023/04/13 06:00:29;;;;;;;;;;;;;;;9.67;83.61;96955.97;4379644;32;19986;-78
2023/04/13 06:02:58;;;;;;;;;;;;;;;9.98;82.49;96949.91;4379822;32;20035;-78
2023/04/13 06:05:25;;;;;;;;;;;;;;;9.79;82.97;96954.47;4379292;32;20372;-78
2023/04/13 06:07:52;;;;;;;;;;;;;;;9.93;81.87;96959.66;4379543;32;19978;-77
2023/04/13 06:10:19;;;;;;;;;;;;;;;10.21;81.05;96961.47;4379931;32;20021;-77
2023/04/13 06:12:47;;;;;;;;;;;;;;;10.80;77.99;96962.25;4383522;32;20483;-79
2023/04/13 06:15:14;;;;;;;;;;;;;;;10.22;82.12;96949.44;4384739;32;19950;-77
2023/04/13 06:17:43;;;;;;;;;;;;;;;9.92;83.97;96958.00;4384995;32;20032;-81
2023/04/13 06:20:10;;;;;;;;;;;;;;;9.60;86.09;96964.97;4383870;32;19979;-82
2023/04/13 06:22:36;;;;;;;;;;;;;;;10.26;82.84;96967.22;4382193;32;19950;-82
2023/04/13 06:25:03;;;;;;;;;;;;;;;10.31;81.69;96959.19;4380263;32;20242;-82
2023/04/13 06:27:32;;;;;;;;;;;;;;;10.83;79.06;96956.91;4380324;32;20329;-87
2023/04/13 06:30:00;;;;;;;;;;;;;;;10.48;80.79;96960.78;4380508;32;20300;-85
2023/04/13 06:32:26;;;;;;;;;;;;;;;10.76;78.80;96962.56;4380511;32;20333;-85
2023/04/13 06:34:53;;;;;;;;;;;;;;;10.14;84.79;96968.72;4379905;32;20313;-87
2023/04/13 06:37:21;;;;;;;;;;;;;;;10.82;82.16;96969.91;4379454;32;19993;-86
2023/04/13 06:39:47;;;;;;;;;;;;;;;10.76;81.33;96967.72;4379233;32;19982;-81
2023/04/13 06:42:15;;;;;;;;;;;;;;;10.87;81.30;96962.72;4379206;32;19978;-81
2023/04/13 06:44:41;;;;;;;;;;;;;;;11.59;75.67;96970.22;4381312;32;19997;-82
2023/04/13 06:47:08;;;;;;;;;;;;;;;11.26;77.49;96967.16;4380875;32;19993;-82
2023/04/13 06:49:35;;;;;;;;;;;;;;;11.63;75.98;96964.84;4378846;32;19978;-81
2023/04/13 06:52:02;;;;;;;;;;;;;;;11.70;75.67;96972.12;4379907;32;19974;-81
2023/04/13 06:54:29;;;;;;;;;;;;;;;12.22;74.13;96975.66;4383809;32;19978;-82
2023/04/13 06:56:56;;;;;;;;;;;;;;;11.91;75.14;96982.00;4387097;32;20614;-81
2023/04/13 06:59:23;;;;;;;;;;;;;;;11.88;76.04;96993.38;4381839;32;19970;-81
2023/04/13 07:01:50;;;;;;;;;;;;;;;11.92;76.07;97005.19;4382691;32;19970;-81
2023/04/13 07:04:17;;;;;;;;;;;;;;;12.03;76.33;97000.16;4381911;32;19978;-80
2023/04/13 07:06:44;;;;;;;;;;;;;;;11.39;79.91;97000.81;4381057;32;20274;-81
2023/04/13 07:09:12;;;;;;;;;;;;;;;11.39;81.13;97003.41;4381157;32;20029;-82
2023/04/13 07:11:38;;;;;;;;;;;;;;;10.59;84.39;96997.91;4386330;32;19974;-81
2023/04/13 07:14:05;;;;;;;;;;;;;;;11.08;81.48;97009.62;4390276;32;20246;-81
2023/04/13 07:16:32;;;;;;;;;;;;;;;11.13;79.85;96995.50;4387293;32;19989;-81
2023/04/13 07:19:00;;;;;;;;;;;;;;;11.06;80.53;96993.38;4386645;32;19990;-81
2023/04/13 07:21:27;;;;;;;;;;;;;;;10.86;81.82;96999.78;4391593;32;19961;-81
2023/04/13 07:23:54;;;;;;;;;;;;;;;10.87;83.78;96997.09;4387830;32;19950;-81
2023/04/13 07:26:20;;;;;;;;;;;;;;;10.28;86.96;97004.03;4388708;32;19950;-81
2023/04/13 07:28:47;;;;;;;;;;;;;;;10.64;87.22;97006.22;4387102;32;19993;-81
2023/04/13 07:31:15;;;;;;;;;;;;;;;11.40;83.53;97002.47;4384547;32;19988;-81
2023/04/13 07:33:41;;;;;;;;;;;;;;;11.46;83.11;97002.91;4381730;32;19966;-82
2023/04/13 07:36:08;;;;;;;;;;;;;;;11.10;84.40;97012.94;4386916;32;19946;-82
2023/04/13 07:38:35;;;;;;;;;;;;;;;11.20;83.62;97011.44;4388027;32;19954;-81
2023/04/13 07:41:02;;;;;;;;;;;;;;;11.62;81.51;97014.88;4385273;32;19989;-81
2023/04/13 07:43:29;;;;;;;;;;;;;;;11.30;82.21;97018.53;4387445;32;19961;-81
2023/04/13 07:45:55;;;;;;;;;;;;;;;11.77;79.90;97016.47;4391926;32;19977;-81
2023/04/13 07:48:24;;;;;;;;;;;;;;;10.73;84.60;97007.41;4391862;32;19946;-81
2023/04/13 07:50:51;;;;;;;;;;;;;;;11.19;81.23;97010.63;4390327;32;19946;-81
2023/04/13 07:53:18;;;;;;;;;;;;;;;11.43;80.42;97004.84;4392653;32;19950;-81
2023/04/13 07:55:45;;;;;;;;;;;;;;;12.06;76.88;97014.63;4388967;32;20301;-81
2023/04/13 07:58:11;;;;;;;;;;;;;;;12.12;76.97;97003.88;4385785;32;19978;-81
2023/04/13 08:00:38;;;;;;;;;;;;;;;12.29;76.71;96993.25;4389484;32;20631;-81
2023/04/13 08:03:05;;;;;;;;;;;;;;;12.44;76.75;96993.97;4392811;32;19950;-81
2023/04/13 08:05:34;;;;;;;;;;;;;;;12.58;75.32;96996.50;4392377;32;19966;-81
2023/04/13 08:08:09;;;;;;;;;;;;;;;12.15;76.28;97003.69;4392170;32;19951;-81
2023/04/13 08:10:36;;;;;;;;;;;;;;;12.14;74.12;97009.78;4393228;32;19961;-81
2023/04/13 08:13:02;;;;;;;;;;;;;;;12.31;74.04;96995.72;4392761;32;19966;-81
2023/04/13 08:15:29;;;;;;;;;;;;;;;11.42;77.05;96993.69;4392094;32;19974;-81
2023/04/13 08:17:57;;;;;;;;;;;;;;;11.82;76.39;96998.97;4387719;32;19974;-82
2023/04/13 08:20:24;;;;;;;;;;;;;;;11.79;77.67;96997.37;4386725;32;19946;-81
2023/04/13 08:22:51;;;;;;;;;;;;;;;11.04;81.01;96988.31;4389978;32;19958;-82
2023/04/13 08:25:18;;;;;;;;;;;;;;;11.21;81.44;96988.13;4390127;32;19977;-82
2023/04/13 08:27:45;;;;;;;;;;;;;;;11.23;80.24;96994.00;4388080;32;19993;-81
2023/04/13 08:30:15;;;;;;;;;;;;;;;11.26;79.69;96991.22;4389063;32;19950;-82
2023/04/13 08:32:41;;;;;;;;;;;;;;;12.20;76.56;96987.84;4386304;32;20313;-81
2023/04/13 08:35:09;;;;;;;;;;;;;;;11.64;80.00;96989.75;4383727;32;19970;-81
2023/04/13 08:37:37;;;;;;;;;;;;;;;11.21;83.13;96988.13;4380989;32;19982;-81
2023/04/13 08:40:06;;;;;;;;;;;;;;;11.48;81.96;96993.31;4379890;32;20336;-81
2023/04/13 08:42:33;;;;;;;;;;;;;;;11.96;80.32;96998.87;4380288;32;19974;-81
2023/04/13 08:45:00;;;;;;;;;;;;;;;12.45;76.64;96999.09;4380340;32;19978;-82
2023/04/13 08:47:27;;;;;;;;;;;;;;;12.20;78.23;97001.62;4378881;32;20000;-82
2023/04/13 08:50:00;;;;;;;;;;;;;;;12.29;78.14;96998.44;4380167;32;20028;-81
2023/04/13 08:52:27;;;;;;;;;;;;;;;12.60;76.74;97001.56;4379015;32;19966;-82
2023/04/13 08:54:55;;;;;;;;;;;;;;;12.64;76.05;97006.41;4379956;32;19970;-82
2023/04/13 08:57:21;;;;;;;;;;;;;;;12.72;76.97;97005.91;4380278;32;20679;-82
2023/04/13 08:59:49;;;;;;;;;;;;;;;12.64;77.95;97006.41;4380019;32;20325;-80
2023/04/13 09:02:16;;;;;;;;;;;;;;;12.73;78.08;97010.16;4379979;32;20480;-82
2023/04/13 09:04:43;;;;;;;;;;;;;;;12.69;77.10;97006.94;4380251;32;19974;-82
2023/04/13 09:07:15;;;;;;;;;;;;;;;13.06;76.51;97012.19;4380101;32;19986;-83
2023/04/13 09:09:42;;;;;;;;;;;;;;;12.73;78.89;97012.72;4378193;32;20020;-82
2023/04/13 09:12:09;;;;;;;;;;;;;;;12.97;76.78;97013.66;4380205;32;20012;-82
2023/04/13 09:14:37;;;;;;;;;;;;;;;12.93;77.28;97008.78;4379864;32;19982;-81
2023/04/13 09:17:04;;;;;;;;;;;;;;;12.98;76.75;97002.38;4378973;32;19982;-82
2023/04/13 09:19:32;;;;;;;;;;;;;;;12.54;79.54;97007.13;4379744;32;20063;-82
2023/04/13 09:22:09;;;;;;;;;;;;;;;12.80;79.74;97005.37;4380500;32;19966;-84
2023/04/13 09:24:40;;;;;;;;;;;;;;;12.34;82.59;97017.06;4379192;32;20321;-80
2023/04/13 09:27:16;;;;;;;;;;;;;;;12.39;83.65;97022.75;4379738;32;20026;-80
2023/04/13 09:29:50;;;;;;;;;;;;;;;12.73;82.43;97017.91;4379762;32;19970;-81
2023/04/13 09:32:21;;;;;;;;;;;;;;;12.99;80.95;97016.16;4381622;32;19974;-80
2023/04/13 09:34:58;;;;;;;;;;;;;;;12.85;81.31;97024.84;4380676;32;19981;-82
2023/04/13 09:37:27;;;;;;;;;;;;;;;13.19;78.15;97025.16;4379902;32;20024;-82
2023/04/13 09:39:53;;;;;;;;;;;;;;;13.21;78.88;97029.31;4378446;32;20098;-82
2023/04/13 09:42:20;;;;;;;;;;;;;;;12.96;79.83;97034.47;4379747;32;19966;-82
2023/04/13 09:44:56;;;;;;;;;;;;;;;12.75;80.33;97029.81;4379752;32;20074;-82
2023/04/13 09:47:24;;;;;;;;;;;;;;;12.89;79.77;97031.47;4379925;32;20039;-81
2023/04/13 09:49:51;;;;;;;;;;;;;;;12.84;79.75;97037.88;4379507;32;20084;-82
2023/04/13 09:52:24;;;;;;;;;;;;;;;12.61;81.51;97039.44;4379954;32;19974;-81
2023/04/13 09:54:56;;;;;;;;;;;;;;;12.60;81.78;97040.38;4380204;32;19981;-81
2023/04/13 09:57:26;;;;;;;;;;;;;;;12.94;81.85;97039.75;4379487;32;19982;-82
2023/04/13 09:59:53;;;;;;;;;;;;;;;12.89;83.23;97035.84;4379766;32;19988;-82
2023/04/13 10:02:20;;;;;;;;;;;;;;;13.24;82.24;97038.63;4380234;32;19996;-81
2023/04/13 10:04:47;;;;;;;;;;;;;;;13.05;82.10;97039.00;4381058;32;20033;-82
2023/04/13 10:07:18;;;;;;;;;;;;;;;12.29;85.12;97050.16;4379699;32;20313;-83
2023/04/13 10:09:44;;;;;;;;;;;;;;;11.87;87.38;97049.41;4379389;32;19970;-83
2023/04/13 10:12:12;;;;;;;;;;;;;;;11.58;89.60;97043.47;4378122;32;19970;-82
2023/04/13 10:14:41;;;;;;;;;;;;;;;11.76;89.88;97036.31;4378386;32;19979;-82
2023/04/13 10:17:27;;;;;;;;;;;;;;;12.00;90.08;97039.09;4378342;32;20044;-82
2023/04/13 10:19:54;;;;;;;;;;;;;;;12.04;90.92;97040.59;4378858;32;19970;-81
2023/04/13 10:22:22;;;;;;;;;;;;;;;12.05;93.71;97042.25;4378128;32;19966;-81
2023/04/13 10:24:50;;;;;;;;;;;;;;;12.37;90.58;97037.56;4379028;32;19974;-81
2023/04/13 10:27:20;;;;;;;;;;;;;;;12.64;89.70;97032.28;4379264;32;19974;-81
2023/04/13 10:29:47;;;;;;;;;;;;;;;12.74;90.91;97028.16;4379004;32;20037;-83
2023/04/13 10:32:21;;;;;;;;;;;;;;;12.82;88.26;97019.88;4380917;32;19974;-81
2023/04/13 10:34:48;;;;;;;;;;;;;;;13.33;84.96;97022.44;4382119;32;20309;-80
2023/04/13 10:37:18;;;;;;;;;;;;;;;13.18;85.46;97021.69;4381236;32;20310;-82
2023/04/13 10:39:45;;;;;;;;;;;;;;;13.29;83.83;97021.84;4382004;32;20683;-79
2023/04/13 10:42:12;;;;;;;;;;;;;;;13.52;87.36;97022.81;4384400;32;19973;-79
2023/04/13 10:44:42;;;;;;;;;;;;;;;13.57;89.00;97017.28;4381090;32;19982;-80
2023/04/13 10:47:10;;;;;;;;;;;;;;;14.03;86.17;97011.38;4380707;32;19989;-80
2023/04/13 10:49:37;;;;;;;;;;;;;;;13.73;85.45;97004.06;4381031;32;20385;-80
2023/04/13 10:52:03;;;;;;;;;;;;;;;13.90;85.40;97011.44;4380829;32;19962;-80
2023/04/13 10:54:30;;;;;;;;;;;;;;;13.61;86.64;97003.19;4381154;32;19978;-81
2023/04/13 10:56:58;;;;;;;;;;;;;;;13.94;85.84;97007.69;4381205;32;19982;-80
2023/04/13 10:59:55;;;;;;;;;;;;;;;14.09;85.08;96998.78;4380841;32;20003;-81
2023/04/13 11:02:25;;;;;;;;;;;;;;;14.31;84.01;96992.00;4381144;32;19991;-82
2023/04/13 11:04:52;;;;;;;;;;;;;;;14.36;83.22;96989.91;4381127;32;19974;-81
2023/04/13 11:07:22;;;;;;;;;;;;;;;14.18;83.42;96992.94;4380954;32;20005;-79
2023/04/13 11:09:52;;;;;;;;;;;;;;;14.38;82.03;96985.44;4380790;32;20101;-78
2023/04/13 11:12:18;;;;;;;;;;;;;;;13.91;84.42;96987.16;4381052;32;20030;-79
2023/04/13 11:14:49;;;;;;;;;;;;;;;14.40;82.71;96994.75;4379507;32;20314;-79
2023/04/13 11:17:18;;;;;;;;;;;;;;;14.02;83.04;96992.38;4380945;32;19991;-79
2023/04/13 11:19:49;;;;;;;;;;;;;;;13.52;87.08;96994.28;4380650;32;20031;-79
2023/04/13 11:22:21;;;;;;;;;;;;;;;13.56;84.58;96994.91;4380492;32;19974;-80
2023/04/13 11:24:48;;;;;;;;;;;;;;;13.28;86.71;96999.44;4380964;32;20322;-80
2023/04/13 11:27:16;;;;;;;;;;;;;;;13.48;86.09;97007.56;4380776;32;19996;-80
2023/04/13 11:29:43;;;;;;;;;;;;;;;13.41;86.02;97006.37;4380287;32;19970;-80
2023/04/13 11:32:17;;;;;;;;;;;;;;;11.88;96.02;97012.28;4379796;32;19978;-81
2023/04/13 11:34:45;;;;;;;;;;;;;;;11.83;97.32;97014.34;4380844;32;19988;-79
2023/04/13 11:37:12;;;;;;;;;;;;;;;12.33;94.99;97006.81;4380424;32;19981;-79
2023/04/13 11:39:41;;;;;;;;;;;;;;;12.08;95.29;97008.41;4380404;32;19969;-81
2023/04/13 11:42:08;;;;;;;;;;;;;;;11.56;98.60;96998.81;4379483;32;19985;-82
2023/04/13 11:44:35;;;;;;;;;;;;;;;11.80;98.23;96999.06;4380769;32;19974;-79
2023/04/13 11:47:02;;;;;;;;;;;;;;;12.25;95.96;97006.50;4380707;32;20029;-80
2023/04/13 11:49:30;;;;;;;;;;;;;;;12.21;96.28;97013.63;4380232;32;19974;-79
2023/04/13 11:52:00;;;;;;;;;;;;;;;12.11;96.01;97003.03;4380417;32;19986;-80
2023/04/13 11:54:30;;;;;;;;;;;;;;;11.75;98.14;97002.81;4379619;32;20589;-81
2023/04/13 11:56:57;;;;;;;;;;;;;;;12.23;97.18;96998.84;4379143;32;19998;-81
2023/04/13 11:59:24;;;;;;;;;;;;;;;11.87;99.38;96995.12;4380277;32;20309;-82
2023/04/13 12:01:50;;;;;;;;;;;;;;;11.39;100.00;96991.31;4380531;32;19966;-83
2023/04/13 12:04:35;;;;;;;;;;;;;;;11.78;100.00;96993.09;4380390;32;19978;-81
2023/04/13 12:07:07;;;;;;;;;;;;;;;11.54;100.00;96984.34;4380596;32;20036;-81
2023/04/13 12:09:44;;;;;;;;;;;;;;;11.90;100.00;96996.69;4380394;32;20023;-81
2023/04/13 12:12:17;;;;;;;;;;;;;;;12.01;99.98;96998.56;4380227;32;19986;-82
2023/04/13 12:14:56;;;;;;;;;;;;;;;12.25;98.62;96996.16;4380548;32;19982;-82
2023/04/13 12:17:51;;;;;;;;;;;;;;;11.87;100.00;96987.38;4379348;32;20002;-83
2023/04/13 12:20:22;;;;;;;;;;;;;;;12.03;100.00;96984.63;4380445;32;19974;-83
2023/04/13 12:22:49;;;;;;;;;;;;;;;11.92;100.00;96979.34;4380389;32;19967;-83
2023/04/13 12:25:25;;;;;;;;;;;;;;;12.02;100.00;96983.00;4379992;32;20380;-82
2023/04/13 12:27:58;;;;;;;;;;;;;;;12.49;97.73;96991.94;4380537;32;19996;-82
2023/04/13 12:30:26;;;;;;;;;;;;;;;13.06;93.14;96995.81;4380455;32;19970;-81
2023/04/13 12:32:53;;;;;;;;;;;;;;;12.57;95.74;96991.44;4378879;32;19962;-82
2023/04/13 12:35:20;;;;;;;;;;;;;;;12.28;98.78;96989.00;4380403;32;19974;-82
2023/04/13 12:37:47;;;;;;;;;;;;;;;12.61;97.99;96983.34;4380330;32;19982;-82
2023/04/13 12:40:15;;;;;;;;;;;;;;;12.20;100.00;96985.28;4380167;32;19989;-82
2023/04/13 12:42:42;;;;;;;;;;;;;;;12.67;97.96;96979.53;4380229;32;20024;-82
2023/04/13 12:45:09;;;;;;;;;;;;;;;12.84;96.94;96976.59;4380009;32;20367;-81
2023/04/13 12:47:36;;;;;;;;;;;;;;;12.95;95.94;96981.84;4380394;32;20384;-81
2023/04/13 12:50:03;;;;;;;;;;;;;;;12.70;98.03;96974.97;4380136;32;19992;-81
2023/04/13 12:52:31;;;;;;;;;;;;;;;12.57;98.95;96971.56;4379761;32;19970;-82